Cheikh El Mokrani — C6WD5 — position and weather

sailwx.info

Track history (hours):
 
Tides and Currents Weather Stations Pressure Air Temp Water Temp Dewpoint Dewpoint Depression Visibility Wind Speed Wind Dir Waves Ship Positions

Cheikh El Mokrani

Last reported at 2015-Mar-04 23:32 UTC. Time now 2015-Mar-06 16:04 UTC.
Position N 39°23' E 001°18'.

Length 220 m; draft 8.1 m.

Type: Ship (hazmat cat D). MMSI: 309979000.

Date/timePositionNaut miles runAvg speedWind from/ knotsBaromVisibWave heightAir tempDewpointWater temp
2015-Mar-04 23:32N 39°23' E 001°18'1717.1
2015-Mar-04 22:33N 39°37' E 001°31'1717.0
2015-Mar-04 21:33N 39°51' E 001°44'1716.9
2015-Mar-04 20:33N 40°04' E 001°57'1817.7
2015-Mar-04 19:33N 40°19' E 002°11'1817.7
2015-Mar-04 18:33N 40°33' E 002°24'1817.5
2015-Mar-04 17:33N 40°47' E 002°38'1818.0
2015-Mar-04 16:33N 41°01' E 002°52'2119.0
2015-Mar-04 15:28N 41°18' E 003°08'1719.1
2015-Mar-04 14:33N 41°32' E 003°22'1918.9
2015-Mar-04 13:33N 41°47' E 003°37'1818.0
2015-Mar-04 12:33N 42°02' E 003°51'1817.7
2015-Mar-04 11:33N 42°16' E 004°06'2117.8
2015-Mar-04 10:22N 42°33' E 004°23'1417.8
2015-Mar-04 09:33N 42°45' E 004°34'2018.9
2015-Mar-04 08:30N 43°01' E 004°50'1515.6
2015-Mar-04 07:33N 43°13' E 005°00'1211.9
2015-Mar-04 06:33N 43°24' E 004°53'3 3.3
2015-Mar-04 05:33N 43°27' E 004°51'0 0.0
2015-Mar-04 04:33N 43°27' E 004°51'0 0.0
2015-Mar-04 03:33N 43°27' E 004°51'0 0.0
2015-Mar-04 02:33N 43°27' E 004°51'0 0.0
2015-Mar-04 01:33N 43°27' E 004°51'0 0.0
2015-Mar-04 00:33N 43°27' E 004°51'0 0.0
2015-Mar-03 23:33N 43°27' E 004°51'0 0.0
2015-Mar-03 22:33N 43°27' E 004°51'0 0.0
2015-Mar-03 21:33N 43°27' E 004°51'0 0.0
2015-Mar-03 20:33N 43°27' E 004°51'0 0.0
2015-Mar-03 19:33N 43°27' E 004°51'0 0.0
2015-Mar-03 18:33N 43°27' E 004°51'0 0.0
2015-Mar-03 17:33N 43°27' E 004°51'0 0.0
2015-Mar-03 16:33N 43°27' E 004°51'0 0.0
2015-Mar-03 15:33N 43°27' E 004°51'0 0.0
2015-Mar-03 14:33N 43°27' E 004°51'0 0.0
2015-Mar-03 13:33N 43°27' E 004°51'0 0.0
2015-Mar-03 12:33N 43°27' E 004°51'0 0.0
2015-Mar-03 11:33N 43°27' E 004°51'0 0.0
2015-Mar-03 10:33N 43°27' E 004°51'0 0.0
2015-Mar-03 09:33N 43°27' E 004°51'0 0.0
2015-Mar-03 08:33N 43°27' E 004°51'0 0.0
2015-Mar-03 07:33N 43°27' E 004°51'0 0.0
2015-Mar-03 06:33N 43°27' E 004°51'0 0.0
2015-Mar-03 05:33N 43°27' E 004°51'0 0.0
2015-Mar-03 04:33N 43°27' E 004°51'0 0.0
2015-Mar-03 03:33N 43°27' E 004°51'0 0.0
2015-Mar-03 02:33N 43°27' E 004°51'0 0.0
2015-Mar-03 01:33N 43°27' E 004°51'0 0.0
2015-Mar-03 00:33N 43°27' E 004°51'0 0.0
2015-Mar-02 23:33N 43°27' E 004°51'0 0.0
2015-Mar-02 22:33N 43°27' E 004°51'5 4.7
2015-Mar-02 21:33N 43°24' E 004°56'8 7.8
2015-Mar-02 20:33N 43°17' E 005°01'1111.0
2015-Mar-02 19:34N 43°06' E 005°05'2016.4
2015-Mar-02 18:20N 42°50' E 004°50'1215.8
2015-Mar-02 17:33N 42°40' E 004°40'1716.2
2015-Mar-02 16:29N 42°26' E 004°25'1616.7
2015-Mar-02 15:31N 42°13' E 004°12'1816.9
2015-Mar-02 14:27N 41°59' E 003°57'1616.0
2015-Mar-02 13:27N 41°47' E 003°44'1516.2
2015-Mar-02 12:33N 41°35' E 003°32'1816.2
2015-Mar-02 11:24N 41°20' E 003°17'1415.9
2015-Mar-02 10:33N 41°10' E 003°06'1716.7
2015-Mar-02 09:33N 40°56' E 002°52'1717.0
2015-Mar-02 08:33N 40°43' E 002°38'1717.1
2015-Mar-02 07:33N 40°29' E 002°25'1717.3
2015-Mar-02 06:33N 40°16' E 002°11'1717.3
2015-Mar-02 05:33N 40°02' E 001°57'1717.4
2015-Mar-02 04:33N 39°48' E 001°43'1717.2
2015-Mar-02 03:33N 39°35' E 001°30'1717.2
2015-Mar-02 02:33N 39°21' E 001°16'1917.1
2015-Mar-02 01:27N 39°06' E 001°01'1616.8
2015-Mar-02 00:29N 38°51' E 000°52'1616.8
2015-Mar-01 23:33N 38°36' E 000°47'1716.9
2015-Mar-01 22:33N 38°20' E 000°41'1717.2
2015-Mar-01 21:33N 38°04' E 000°35'1717.3
2015-Mar-01 20:33N 37°47' E 000°29'1717.2
2015-Mar-01 19:33N 37°30' E 000°23'1717.4
2015-Mar-01 18:33N 37°14' E 000°17'1717.2
2015-Mar-01 17:33N 36°57' E 000°11'1716.9
2015-Mar-01 16:33N 36°41' E 000°05'2217.0
2015-Mar-01 15:14N 36°19' W 000°03'  
2015-Feb-26 21:19N 35°56' W 000°07'  
Track history (hours):
 
Tides and Currents Weather Stations Pressure Air Temp Water Temp Dewpoint Dewpoint Depression Visibility Wind Speed Wind Dir Waves Ship Positions

Cheikh El Mokrani

Last reported at 2015-Mar-04 23:32 UTC. Time now 2015-Mar-06 16:04 UTC.
Position N 39°23' E 001°18'.

Length 220 m; draft 8.1 m.

Type: Ship (hazmat cat D). MMSI: 309979000.

Date/timePositionNaut miles runAvg speedWind from/ knotsBaromVisibWave heightAir tempDewpointWater temp
2015-Mar-04 23:32N 39°23' E 001°18'1717.1
2015-Mar-04 22:33N 39°37' E 001°31'1717.0
2015-Mar-04 21:33N 39°51' E 001°44'1716.9
2015-Mar-04 20:33N 40°04' E 001°57'1817.7
2015-Mar-04 19:33N 40°19' E 002°11'1817.7
2015-Mar-04 18:33N 40°33' E 002°24'1817.5
2015-Mar-04 17:33N 40°47' E 002°38'1818.0
2015-Mar-04 16:33N 41°01' E 002°52'2119.0
2015-Mar-04 15:28N 41°18' E 003°08'1719.1
2015-Mar-04 14:33N 41°32' E 003°22'1918.9
2015-Mar-04 13:33N 41°47' E 003°37'1818.0
2015-Mar-04 12:33N 42°02' E 003°51'1817.7
2015-Mar-04 11:33N 42°16' E 004°06'2117.8
2015-Mar-04 10:22N 42°33' E 004°23'1417.8
2015-Mar-04 09:33N 42°45' E 004°34'2018.9
2015-Mar-04 08:30N 43°01' E 004°50'1515.6
2015-Mar-04 07:33N 43°13' E 005°00'1211.9
2015-Mar-04 06:33N 43°24' E 004°53'3 3.3
2015-Mar-04 05:33N 43°27' E 004°51'0 0.0
2015-Mar-04 04:33N 43°27' E 004°51'0 0.0
2015-Mar-04 03:33N 43°27' E 004°51'0 0.0
2015-Mar-04 02:33N 43°27' E 004°51'0 0.0
2015-Mar-04 01:33N 43°27' E 004°51'0 0.0
2015-Mar-04 00:33N 43°27' E 004°51'0 0.0
2015-Mar-03 23:33N 43°27' E 004°51'0 0.0
2015-Mar-03 22:33N 43°27' E 004°51'0 0.0
2015-Mar-03 21:33N 43°27' E 004°51'0 0.0
2015-Mar-03 20:33N 43°27' E 004°51'0 0.0
2015-Mar-03 19:33N 43°27' E 004°51'0 0.0
2015-Mar-03 18:33N 43°27' E 004°51'0 0.0
2015-Mar-03 17:33N 43°27' E 004°51'0 0.0
2015-Mar-03 16:33N 43°27' E 004°51'0 0.0
2015-Mar-03 15:33N 43°27' E 004°51'0 0.0
2015-Mar-03 14:33N 43°27' E 004°51'0 0.0
2015-Mar-03 13:33N 43°27' E 004°51'0 0.0
2015-Mar-03 12:33N 43°27' E 004°51'0 0.0
2015-Mar-03 11:33N 43°27' E 004°51'0 0.0
2015-Mar-03 10:33N 43°27' E 004°51'0 0.0
2015-Mar-03 09:33N 43°27' E 004°51'0 0.0
2015-Mar-03 08:33N 43°27' E 004°51'0 0.0
2015-Mar-03 07:33N 43°27' E 004°51'0 0.0
2015-Mar-03 06:33N 43°27' E 004°51'0 0.0
2015-Mar-03 05:33N 43°27' E 004°51'0 0.0
2015-Mar-03 04:33N 43°27' E 004°51'0 0.0
2015-Mar-03 03:33N 43°27' E 004°51'0 0.0
2015-Mar-03 02:33N 43°27' E 004°51'0 0.0
2015-Mar-03 01:33N 43°27' E 004°51'0 0.0
2015-Mar-03 00:33N 43°27' E 004°51'0 0.0
2015-Mar-02 23:33N 43°27' E 004°51'0 0.0
2015-Mar-02 22:33N 43°27' E 004°51'5 4.7
2015-Mar-02 21:33N 43°24' E 004°56'8 7.8
2015-Mar-02 20:33N 43°17' E 005°01'1111.0
2015-Mar-02 19:34N 43°06' E 005°05'2016.4
2015-Mar-02 18:20N 42°50' E 004°50'1215.8
2015-Mar-02 17:33N 42°40' E 004°40'1716.2
2015-Mar-02 16:29N 42°26' E 004°25'1616.7
2015-Mar-02 15:31N 42°13' E 004°12'1816.9
2015-Mar-02 14:27N 41°59' E 003°57'1616.0
2015-Mar-02 13:27N 41°47' E 003°44'1516.2
2015-Mar-02 12:33N 41°35' E 003°32'1816.2
2015-Mar-02 11:24N 41°20' E 003°17'1415.9
2015-Mar-02 10:33N 41°10' E 003°06'1716.7
2015-Mar-02 09:33N 40°56' E 002°52'1717.0
2015-Mar-02 08:33N 40°43' E 002°38'1717.1
2015-Mar-02 07:33N 40°29' E 002°25'1717.3
2015-Mar-02 06:33N 40°16' E 002°11'1717.3
2015-Mar-02 05:33N 40°02' E 001°57'1717.4
2015-Mar-02 04:33N 39°48' E 001°43'1717.2
2015-Mar-02 03:33N 39°35' E 001°30'1717.2
2015-Mar-02 02:33N 39°21' E 001°16'1917.1
2015-Mar-02 01:27N 39°06' E 001°01'1616.8
2015-Mar-02 00:29N 38°51' E 000°52'1616.8
2015-Mar-01 23:33N 38°36' E 000°47'1716.9
2015-Mar-01 22:33N 38°20' E 000°41'1717.2
2015-Mar-01 21:33N 38°04' E 000°35'1717.3
2015-Mar-01 20:33N 37°47' E 000°29'1717.2
2015-Mar-01 19:33N 37°30' E 000°23'1717.4
2015-Mar-01 18:33N 37°14' E 000°17'1717.2
2015-Mar-01 17:33N 36°57' E 000°11'1716.9
2015-Mar-01 16:33N 36°41' E 000°05'2217.0
2015-Mar-01 15:14N 36°19' W 000°03'  
2015-Feb-26 21:19N 35°56' W 000°07'  

Dump ship's entire track history